Time;durP1;ratioP1;P1;durP2;ratioP2;P2;SDS_P1;SDS_P2;PMS_P1;PMS_P2;Temp;Humidity;BMP_temperature;BMP_pressure;BME280_temperature;BME280_humidity;BME280_pressure;Samples;Min_cycle;Max_cycle;Signal;HPM_P1;HPM_P2
2022/06/18 00:01:49;;;;;;;6;8;;;;;;;14.1;100;99240;;;;
2022/06/18 00:13:53;;;;;;;6;8;;;;;;;13.8;100;99230;;;;
2022/06/18 00:22:49;;;;;;;6;8;;;;;;;13.7;100;99220;;;;
2022/06/18 00:32:49;;;;;;;4.9;8.2;;;;;;;13.4;100;99220;;;;
2022/06/18 00:42:49;;;;;;;4.9;8.2;;;;;;;13.3;100;99220;;;;
2022/06/18 00:53:49;;;;;;;4.9;8.2;;;;;;;13;100;99220;;;;
2022/06/18 01:03:49;;;;;;;4.7;6.8;;;;;;;12.7;100;99210;;;;
2022/06/18 01:14:49;;;;;;;4.7;6.8;;;;;;;12.4;100;99220;;;;
2022/06/18 01:24:49;;;;;;;4.7;6.8;;;;;;;12.2;100;99210;;;;
2022/06/18 01:35:49;;;;;;;5.1;7.1;;;;;;;12;100;99210;;;;
2022/06/18 01:45:49;;;;;;;5.1;7.1;;;;;;;11.8;100;99200;;;;
2022/06/18 01:55:49;;;;;;;5.1;7.1;;;;;;;11.6;100;99190;;;;
2022/06/18 02:06:49;;;;;;;4.7;8.2;;;;;;;11.5;100;99190;;;;
2022/06/18 02:16:49;;;;;;;4.7;8.2;;;;;;;11.3;100;99190;;;;
2022/06/18 02:27:49;;;;;;;5.6;8.4;;;;;;;11.2;100;99190;;;;
2022/06/18 02:37:49;;;;;;;5.6;8.4;;;;;;;11.1;100;99180;;;;
2022/06/18 02:47:49;;;;;;;5.6;8.4;;;;;;;11.1;100;99180;;;;
2022/06/18 02:57:49;;;;;;;4;6.6;;;;;;;11.2;100;99180;;;;
2022/06/18 03:08:49;;;;;;;4;6.6;;;;;;;11.4;100;99180;;;;
2022/06/18 03:18:49;;;;;;;4;6.6;;;;;;;11.5;100;99180;;;;
2022/06/18 03:28:49;;;;;;;4.2;6.9;;;;;;;11.6;100;99180;;;;
2022/06/18 03:38:49;;;;;;;4.2;6.9;;;;;;;11.9;100;99180;;;;
2022/06/18 03:48:49;;;;;;;4.2;6.9;;;;;;;12.2;100;99180;;;;
2022/06/18 03:58:49;;;;;;;5.2;8.8;;;;;;;12.5;100;99180;;;;
2022/06/18 04:09:50;;;;;;;5.2;8.8;;;;;;;12.9;100;99180;;;;
2022/06/18 04:19:49;;;;;;;5.2;8.8;;;;;;;13.3;100;99190;;;;
2022/06/18 04:29:49;;;;;;;4.2;8.3;;;;;;;13.7;100;99180;;;;
2022/06/18 04:40:49;;;;;;;4.2;8.3;;;;;;;14.4;100;99190;;;;
2022/06/18 04:50:49;;;;;;;4.2;8.3;;;;;;;14.9;100;99180;;;;
2022/06/18 05:01:49;;;;;;;3.6;6.5;;;;;;;15.5;100;99200;;;;
2022/06/18 05:12:49;;;;;;;3.6;6.5;;;;;;;16.2;100;99200;;;;
2022/06/18 05:23:49;;;;;;;3.6;6.5;;;;;;;16.6;100;99190;;;;
2022/06/18 05:34:49;;;;;;;3.1;6;;;;;;;17.1;100;99200;;;;
2022/06/18 05:45:53;;;;;;;3.1;6;;;;;;;17.5;100;99210;;;;
2022/06/18 05:56:50;;;;;;;2.8;5;;;;;;;17.9;100;99210;;;;
2022/06/18 06:07:49;;;;;;;2.8;5;;;;;;;18.1;100;99200;;;;
2022/06/18 06:17:49;;;;;;;2.8;5;;;;;;;18.6;100;99200;;;;
2022/06/18 06:27:49;;;;;;;3.4;6.8;;;;;;;18.9;100;99200;;;;
2022/06/18 06:37:49;;;;;;;3.4;6.8;;;;;;;19.4;100;99200;;;;
2022/06/18 06:47:49;;;;;;;3.4;6.8;;;;;;;19.6;100;99190;;;;
2022/06/18 06:57:49;;;;;;;3;6.1;;;;;;;20.1;100;99190;;;;
2022/06/18 07:08:50;;;;;;;3;6.1;;;;;;;20.4;100;99190;;;;
2022/06/18 07:18:50;;;;;;;3;6.1;;;;;;;20.8;100;99180;;;;
2022/06/18 07:29:49;;;;;;;3.8;6.4;;;;;;;21;100;99180;;;;
2022/06/18 07:40:49;;;;;;;3.8;6.4;;;;;;;21.5;100;99180;;;;
2022/06/18 07:50:50;;;;;;;3.8;6.4;;;;;;;21.8;100;99190;;;;
2022/06/18 08:01:49;;;;;;;3.5;6;;;;;;;22.3;100;99200;;;;
2022/06/18 08:11:50;;;;;;;3.5;6;;;;;;;22.5;100;99200;;;;
2022/06/18 08:22:49;;;;;;;3.5;6;;;;;;;22.8;100;99200;;;;
2022/06/18 08:32:49;;;;;;;2.5;5.1;;;;;;;22.9;100;99190;;;;
2022/06/18 08:43:49;;;;;;;2.5;5.1;;;;;;;23.2;100;99180;;;;
2022/06/18 08:54:49;;;;;;;2.5;5.1;;;;;;;23.3;100;99170;;;;
2022/06/18 09:04:49;;;;;;;2;4.4;;;;;;;23.5;100;99140;;;;
2022/06/18 09:15:49;;;;;;;2;4.4;;;;;;;23.9;99.5;99140;;;;
2022/06/18 09:26:49;;;;;;;1.4;3.5;;;;;;;24;95.9;99140;;;;
2022/06/18 09:37:49;;;;;;;1.4;3.5;;;;;;;24;87.6;99130;;;;
2022/06/18 09:47:49;;;;;;;1.4;3.5;;;;;;;24.2;91.4;99110;;;;
2022/06/18 09:57:50;;;;;;;1.8;3.6;;;;;;;25.3;89.8;99100;;;;
2022/06/18 10:08:49;;;;;;;1.8;3.6;;;;;;;25.5;86.6;99100;;;;
2022/06/18 10:19:49;;;;;;;1.8;3.6;;;;;;;25.6;73.7;99080;;;;
2022/06/18 10:30:49;;;;;;;1.6;3.8;;;;;;;26.8;66.8;99060;;;;
2022/06/18 10:41:49;;;;;;;1.6;3.8;;;;;;;26.9;64.2;99060;;;;
2022/06/18 10:52:49;;;;;;;1.6;3.8;;;;;;;26.6;64.9;99050;;;;
2022/06/18 11:03:50;;;;;;;1.5;2.5;;;;;;;26.3;69.3;99040;;;;
2022/06/18 11:13:50;;;;;;;1.5;2.5;;;;;;;26.2;70.1;99030;;;;
2022/06/18 11:23:49;;;;;;;1.5;2.5;;;;;;;25.9;72.5;99030;;;;
2022/06/18 11:33:49;;;;;;;1.6;3.4;;;;;;;26.1;71.3;99020;;;;
2022/06/18 11:44:49;;;;;;;1.6;3.4;;;;;;;25.6;69.6;99010;;;;
2022/06/18 11:55:49;;;;;;;1.6;3.4;;;;;;;25.7;72;99000;;;;
2022/06/18 12:05:49;;;;;;;1.4;3.8;;;;;;;26;76.5;98970;;;;
2022/06/18 12:16:49;;;;;;;1.4;3.8;;;;;;;26.2;67.9;98960;;;;
2022/06/18 12:26:49;;;;;;;1.8;4.3;;;;;;;26;73.2;98950;;;;
2022/06/18 12:37:49;;;;;;;1.8;4.3;;;;;;;26.3;72.3;98940;;;;
2022/06/18 12:47:49;;;;;;;1.8;4.3;;;;;;;26.7;73.6;98940;;;;
2022/06/18 12:57:52;;;;;;;1.6;3.6;;;;;;;27;71.7;98930;;;;
2022/06/18 13:08:49;;;;;;;1.6;3.6;;;;;;;26.9;73.6;98910;;;;
2022/06/18 13:18:49;;;;;;;1.6;3.6;;;;;;;27.2;69.8;98890;;;;
2022/06/18 13:29:49;;;;;;;2.2;4;;;;;;;27.7;70.5;98870;;;;
2022/06/18 13:39:49;;;;;;;2.2;4;;;;;;;27.5;69;98870;;;;
2022/06/18 13:50:49;;;;;;;2.2;4;;;;;;;27.5;68.9;98870;;;;
2022/06/18 14:01:49;;;;;;;1.9;4.4;;;;;;;28.2;68;98850;;;;
2022/06/18 14:11:49;;;;;;;1.9;4.4;;;;;;;28.1;64.6;98840;;;;
2022/06/18 14:22:49;;;;;;;1.9;4.4;;;;;;;28.8;70.8;98820;;;;
2022/06/18 14:32:49;;;;;;;1.9;3.9;;;;;;;28.9;65;98820;;;;
2022/06/18 14:43:49;;;;;;;1.9;3.9;;;;;;;29;61.5;98810;;;;
2022/06/18 14:54:49;;;;;;;1.9;3.9;;;;;;;29.5;62.5;98790;;;;
2022/06/18 15:04:49;;;;;;;1.2;3.3;;;;;;;31.4;61.3;98780;;;;
2022/06/18 15:14:52;;;;;;;1.2;3.3;;;;;;;33.2;51.2;98770;;;;
2022/06/18 15:25:49;;;;;;;1.2;3.3;;;;;;;34.3;49.9;98760;;;;
2022/06/18 15:35:49;;;;;;;1.5;4.1;;;;;;;36.1;46.1;98770;;;;
2022/06/18 15:45:49;;;;;;;1.5;4.1;;;;;;;36.7;45.5;98750;;;;
2022/06/18 15:55:49;;;;;;;1.5;4.1;;;;;;;38;40.7;98740;;;;
2022/06/18 16:06:49;;;;;;;1.3;3.3;;;;;;;38.9;42.6;98720;;;;
2022/06/18 16:16:49;;;;;;;1.3;3.3;;;;;;;39;40.5;98730;;;;
2022/06/18 16:27:49;;;;;;;1.5;3.1;;;;;;;38.8;42.1;98730;;;;
2022/06/18 16:38:50;;;;;;;1.5;3.1;;;;;;;40;38.4;98730;;;;
2022/06/18 16:48:49;;;;;;;1.5;3.1;;;;;;;39.2;39.3;98710;;;;
2022/06/18 16:59:49;;;;;;;2;6.1;;;;;;;37.5;41.2;98700;;;;
2022/06/18 17:09:49;;;;;;;2;6.1;;;;;;;36.3;41.8;98690;;;;
2022/06/18 17:19:49;;;;;;;2;6.1;;;;;;;32.7;48;98680;;;;
2022/06/18 17:31:21;;;;;;;2;4;;;;;;;32.3;51.4;98670;;;;
2022/06/18 17:41:49;;;;;;;2;4;;;;;;;33.5;48.4;98670;;;;
2022/06/18 17:51:49;;;;;;;2;4;;;;;;;32.8;48.4;98670;;;;
2022/06/18 18:01:49;;;;;;;3.2;6.3;;;;;;;33;49.3;98670;;;;
2022/06/18 18:11:49;;;;;;;3.2;6.3;;;;;;;29.6;58.2;98670;;;;
2022/06/18 18:22:49;;;;;;;3.2;6.3;;;;;;;27.9;66.2;98680;;;;
2022/06/18 18:33:49;;;;;;;4.1;9;;;;;;;26.2;71;98670;;;;
2022/06/18 18:43:49;;;;;;;4.1;9;;;;;;;24.9;78.3;98680;;;;
2022/06/18 18:54:49;;;;;;;4.1;9;;;;;;;23.5;84.4;98680;;;;
2022/06/18 19:05:49;;;;;;;3;6.3;;;;;;;22.3;96.8;98680;;;;
2022/06/18 19:15:49;;;;;;;3;6.3;;;;;;;21.6;100;98690;;;;
2022/06/18 19:26:49;;;;;;;3;6.3;;;;;;;21.1;100;98700;;;;
2022/06/18 19:37:49;;;;;;;10.6;17.9;;;;;;;20.7;100;98690;;;;
2022/06/18 19:47:49;;;;;;;10.6;17.9;;;;;;;20.3;100;98680;;;;
2022/06/18 19:58:49;;;;;;;3.6;5.8;;;;;;;20;100;98680;;;;
2022/06/18 20:09:49;;;;;;;3.6;5.8;;;;;;;20.1;100;98680;;;;
2022/06/18 20:20:49;;;;;;;3.6;5.8;;;;;;;20;100;98680;;;;
2022/06/18 20:30:49;;;;;;;3.5;5.5;;;;;;;20;100;98680;;;;
2022/06/18 20:41:04;;;;;;;3.5;5.5;;;;;;;20;100;98680;;;;
2022/06/18 20:50:49;;;;;;;3.5;5.5;;;;;;;19.9;100;98680;;;;
2022/06/18 21:01:49;;;;;;;4.1;6.3;;;;;;;19.7;100;98670;;;;
2022/06/18 21:12:49;;;;;;;4.1;6.3;;;;;;;19.6;100;98670;;;;
2022/06/18 21:23:49;;;;;;;4.1;6.3;;;;;;;19.6;100;98660;;;;
2022/06/18 21:43:49;;;;;;;3.1;5.7;;;;;;;19.5;100;98660;;;;
2022/06/18 21:54:49;;;;;;;3.1;5.7;;;;;;;19.2;100;98650;;;;
2022/06/18 22:04:49;;;;;;;3.5;5.5;;;;;;;18.9;100;98660;;;;
2022/06/18 22:25:49;;;;;;;3.5;5.5;;;;;;;18.3;100;98650;;;;
2022/06/18 22:36:49;;;;;;;8.4;13.6;;;;;;;18;100;98660;;;;
2022/06/18 22:46:49;;;;;;;8.4;13.6;;;;;;;17.7;100;98660;;;;
2022/06/18 22:56:49;;;;;;;8.4;13.6;;;;;;;17.5;100;98660;;;;
2022/06/18 23:06:50;;;;;;;7.4;11.3;;;;;;;17.5;100;98660;;;;
2022/06/18 23:17:49;;;;;;;7.4;11.3;;;;;;;17.8;100;98670;;;;
2022/06/18 23:28:50;;;;;;;3.1;7.7;;;;;;;17.9;100;98670;;;;
2022/06/18 23:39:49;;;;;;;3.1;7.7;;;;;;;17.5;100;98660;;;;
2022/06/18 23:49:49;;;;;;;3.1;7.7;;;;;;;17.1;100;98670;;;;
